Time;durP1;ratioP1;P1;durP2;ratioP2;P2;SDS_P1;SDS_P2;PMS_P1;PMS_P2;Temp;Humidity;BMP_temperature;BMP_pressure;BME280_temperature;BME280_humidity;BME280_pressure;Samples;Min_cycle;Max_cycle;Signal;HPM_P1;HPM_P2
2021/04/28 00:00:41;;;;;;;2.65;1.38;;;12.10;41.60;;;;;;4974207;28;20412;-75
2021/04/28 00:03:09;;;;;;;3.00;1.42;;;12.10;41.60;;;;;;4988971;28;20050;-76
2021/04/28 00:05:35;;;;;;;4.32;1.30;;;12.10;41.80;;;;;;4972546;28;20019;-76
2021/04/28 00:08:01;;;;;;;4.30;1.80;;;12.00;41.90;;;;;;4974314;28;20027;-75
2021/04/28 00:10:31;;;;;;;2.20;1.45;;;12.00;41.90;;;;;;4972310;28;20082;-75
2021/04/28 00:12:57;;;;;;;1.95;1.35;;;12.00;42.00;;;;;;4974138;28;20058;-74
2021/04/28 00:15:26;;;;;;;1.67;1.30;;;12.00;42.00;;;;;;4972270;28;20546;-74
2021/04/28 00:17:52;;;;;;;3.17;1.30;;;12.00;42.00;;;;;;4972836;28;20022;-75
2021/04/28 00:20:19;;;;;;;5.20;1.45;;;11.90;41.90;;;;;;4973585;28;20034;-75
2021/04/28 00:22:45;;;;;;;3.20;1.75;;;11.90;41.90;;;;;;4974343;28;20038;-75
2021/04/28 00:25:14;;;;;;;3.22;1.85;;;11.90;41.80;;;;;;4988946;28;20421;-74
2021/04/28 00:27:40;;;;;;;3.90;1.30;;;11.80;41.90;;;;;;4972975;28;20065;-75
2021/04/28 00:30:09;;;;;;;2.17;1.38;;;11.80;41.90;;;;;;4973660;28;20085;-76
2021/04/28 00:32:35;;;;;;;1.95;1.20;;;11.80;42.00;;;;;;4988078;28;20066;-75
2021/04/28 00:35:02;;;;;;;3.10;1.60;;;11.80;42.10;;;;;;4973896;28;20023;-75
2021/04/28 00:37:28;;;;;;;5.30;1.30;;;11.80;42.20;;;;;;4971814;28;20023;-75
2021/04/28 00:39:54;;;;;;;3.63;1.50;;;11.80;42.20;;;;;;4972522;28;20029;-75
2021/04/28 00:42:20;;;;;;;2.75;1.20;;;11.70;42.20;;;;;;4973254;28;20035;-76
2021/04/28 00:44:46;;;;;;;2.65;1.17;;;11.70;42.20;;;;;;4973305;28;20026;-76
2021/04/28 00:47:11;;;;;;;3.45;1.50;;;11.70;42.30;;;;;;4973781;28;20022;-75
2021/04/28 00:49:37;;;;;;;4.82;1.98;;;11.70;42.30;;;;;;4971339;28;20370;-75
2021/04/28 00:52:05;;;;;;;4.80;1.45;;;11.70;42.40;;;;;;4973247;28;20030;-75
2021/04/28 00:54:31;;;;;;;2.53;1.92;;;11.70;42.30;;;;;;4972984;28;20089;-75
2021/04/28 00:56:59;;;;;;;2.17;1.20;;;11.60;42.40;;;;;;4973538;28;20118;-75
2021/04/28 00:59:26;;;;;;;4.15;1.40;;;11.60;42.30;;;;;;4972886;28;20105;-76
2021/04/28 01:01:52;;;;;;;2.60;1.40;;;11.60;42.40;;;;;;4972076;28;20026;-75
2021/04/28 01:04:19;;;;;;;2.35;1.20;;;11.60;42.40;;;;;;4972753;28;20074;-76
2021/04/28 01:06:46;;;;;;;3.63;1.60;;;11.60;42.40;;;;;;4973556;28;20031;-75
2021/04/28 01:09:16;;;;;;;2.35;1.20;;;11.50;42.30;;;;;;4972032;28;20018;-76
2021/04/28 01:11:43;;;;;;;3.03;1.77;;;11.50;42.20;;;;;;4973597;28;20363;-75
2021/04/28 01:14:09;;;;;;;2.85;1.20;;;11.40;42.30;;;;;;4972954;28;20383;-74
2021/04/28 01:16:35;;;;;;;2.55;1.42;;;11.50;42.40;;;;;;4972526;28;20031;-75
2021/04/28 01:19:05;;;;;;;1.95;1.20;;;11.40;42.50;;;;;;4973063;28;20383;-75
2021/04/28 01:21:31;;;;;;;3.50;1.65;;;11.40;42.60;;;;;;4971278;28;20085;-74
2021/04/28 01:23:57;;;;;;;2.70;1.35;;;11.40;42.60;;;;;;4971848;28;20034;-75
2021/04/28 01:26:26;;;;;;;3.28;1.60;;;11.30;42.70;;;;;;4972369;28;20023;-76
2021/04/28 01:28:53;;;;;;;2.38;1.40;;;11.40;42.90;;;;;;4987949;28;20101;-75
2021/04/28 01:31:21;;;;;;;2.10;1.30;;;11.30;42.90;;;;;;4971739;28;20034;-76
2021/04/28 01:33:53;;;;;;;3.05;1.27;;;11.30;42.90;;;;;;4971654;28;20109;-75
2021/04/28 01:36:22;;;;;;;4.00;1.48;;;11.30;42.90;;;;;;4972756;28;20352;-75
2021/04/28 01:38:53;;;;;;;3.20;1.42;;;11.30;42.90;;;;;;4972900;28;20054;-75
2021/04/28 01:41:19;;;;;;;2.47;1.58;;;11.30;43.00;;;;;;4972702;28;20023;-76
2021/04/28 01:43:46;;;;;;;3.83;1.50;;;11.20;43.10;;;;;;4972941;28;20035;-75
2021/04/28 01:46:12;;;;;;;2.25;1.30;;;11.20;43.30;;;;;;4971786;28;20378;-75
2021/04/28 01:48:39;;;;;;;2.70;1.50;;;11.20;43.20;;;;;;4972231;28;20110;-78
2021/04/28 01:51:06;;;;;;;2.95;1.33;;;11.10;43.10;;;;;;4971658;28;20105;-78
2021/04/28 01:53:32;;;;;;;3.63;1.38;;;11.00;43.30;;;;;;4972357;28;20053;-78
2021/04/28 01:55:59;;;;;;;3.60;1.30;;;11.00;43.50;;;;;;4972819;28;20034;-78
2021/04/28 01:58:27;;;;;;;4.30;1.67;;;11.00;43.50;;;;;;4973864;28;20426;-78
2021/04/28 02:00:54;;;;;;;2.55;1.55;;;11.00;43.60;;;;;;4975426;28;20339;-79
2021/04/28 02:03:24;;;;;;;2.50;1.35;;;11.00;43.70;;;;;;4976601;28;20043;-79
2021/04/28 02:05:51;;;;;;;2.88;1.27;;;11.00;43.70;;;;;;4976456;28;20018;-79
2021/04/28 02:08:18;;;;;;;2.30;1.50;;;10.90;43.60;;;;;;4975274;28;20023;-78
2021/04/28 02:10:44;;;;;;;3.53;1.80;;;10.90;43.70;;;;;;4974583;28;20121;-79
2021/04/28 02:13:19;;;;;;;4.10;1.65;;;10.90;43.80;;;;;;4976422;28;20078;-78
2021/04/28 02:15:46;;;;;;;4.38;1.55;;;10.90;43.90;;;;;;4975947;28;20098;-77
2021/04/28 02:18:14;;;;;;;2.55;1.67;;;10.90;44.00;;;;;;4976268;28;20023;-79
2021/04/28 02:20:40;;;;;;;3.53;1.75;;;10.90;44.10;;;;;;4974531;28;20027;-79
2021/04/28 02:23:07;;;;;;;3.50;1.95;;;10.90;44.20;;;;;;4976518;28;20134;-79
2021/04/28 02:25:34;;;;;;;5.30;1.98;;;10.90;44.20;;;;;;4974402;28;20030;-78
2021/04/28 02:28:00;;;;;;;3.38;1.50;;;10.90;44.30;;;;;;4976439;28;20034;-78
2021/04/28 02:30:29;;;;;;;5.20;1.35;;;10.90;44.20;;;;;;4975340;28;20543;-79
2021/04/28 02:32:55;;;;;;;3.72;1.67;;;10.80;44.10;;;;;;4976305;28;20027;-78
2021/04/28 02:35:26;;;;;;;2.90;1.38;;;10.80;44.10;;;;;;4974823;28;20023;-79
2021/04/28 02:38:13;;;;;;;2.60;1.70;;;10.80;44.30;;;;;;4976162;28;20037;-78
2021/04/28 02:40:40;;;;;;;3.47;1.45;;;10.80;44.20;;;;;;4975405;28;20106;-79
2021/04/28 02:43:07;;;;;;;3.05;1.60;;;10.70;44.20;;;;;;4974576;28;20486;-79
2021/04/28 02:45:34;;;;;;;3.88;1.40;;;10.70;44.20;;;;;;4975357;28;20028;-77
2021/04/28 02:48:01;;;;;;;3.05;1.42;;;10.70;44.30;;;;;;4975632;28;20077;-79
2021/04/28 02:50:28;;;;;;;2.53;1.60;;;10.70;44.30;;;;;;4975349;28;20027;-79
2021/04/28 02:52:56;;;;;;;4.60;1.85;;;10.60;44.30;;;;;;4975751;28;20027;-78
2021/04/28 02:55:21;;;;;;;3.40;1.70;;;10.60;44.20;;;;;;4976051;28;20066;-78
2021/04/28 02:57:48;;;;;;;2.63;1.90;;;10.60;44.40;;;;;;4973775;28;20324;-78
2021/04/28 03:00:21;;;;;;;4.53;1.40;;;10.50;44.50;;;;;;4974395;28;20022;-78
2021/04/28 03:02:48;;;;;;;3.17;1.20;;;10.50;44.50;;;;;;4973320;28;20326;-77
2021/04/28 03:05:17;;;;;;;3.05;1.40;;;10.50;44.50;;;;;;4975715;28;20110;-78
2021/04/28 03:07:42;;;;;;;3.75;1.60;;;10.50;44.60;;;;;;4974834;28;20126;-78
2021/04/28 03:10:09;;;;;;;4.20;1.58;;;10.50;44.70;;;;;;4975379;28;20129;-79
2021/04/28 03:12:36;;;;;;;3.30;1.67;;;10.50;44.80;;;;;;4973539;28;20027;-78
2021/04/28 03:15:02;;;;;;;4.55;1.30;;;10.40;44.90;;;;;;4975473;28;20160;-77
2021/04/28 03:17:28;;;;;;;3.33;1.65;;;10.40;44.80;;;;;;4974887;28;20030;-77
2021/04/28 03:19:57;;;;;;;2.30;1.40;;;10.40;44.80;;;;;;4975405;28;20023;-79
2021/04/28 03:22:23;;;;;;;3.97;1.50;;;10.40;44.80;;;;;;4974315;28;20306;-79
2021/04/28 03:24:49;;;;;;;2.60;1.55;;;10.40;44.90;;;;;;4976047;28;20035;-78
2021/04/28 03:27:16;;;;;;;2.10;1.48;;;10.40;45.00;;;;;;4981373;28;20026;-78
2021/04/28 03:29:42;;;;;;;3.28;1.67;;;10.30;45.00;;;;;;4977386;28;20491;-78
2021/04/28 03:32:09;;;;;;;2.75;1.70;;;10.30;45.00;;;;;;4975148;28;20546;-79
2021/04/28 03:34:35;;;;;;;3.38;1.60;;;10.40;45.00;;;;;;4974266;28;20431;-79
2021/04/28 03:37:03;;;;;;;3.53;1.70;;;10.30;45.10;;;;;;4973707;28;20386;-78
2021/04/28 03:39:30;;;;;;;2.53;1.65;;;10.30;45.20;;;;;;4975065;28;20025;-79
2021/04/28 03:41:55;;;;;;;4.07;1.90;;;10.30;45.30;;;;;;4974776;28;20085;-79
2021/04/28 03:44:21;;;;;;;4.55;1.63;;;10.30;45.50;;;;;;4974793;28;20491;-78
2021/04/28 03:46:47;;;;;;;4.22;1.70;;;10.20;45.50;;;;;;4974352;28;20031;-78
2021/04/28 03:49:15;;;;;;;3.08;1.77;;;10.20;45.60;;;;;;4975159;28;20041;-78
2021/04/28 03:51:41;;;;;;;12.75;4.55;;;10.20;45.70;;;;;;4972665;28;20023;-79
2021/04/28 03:54:06;;;;;;;2.50;1.50;;;10.10;45.70;;;;;;4974432;28;20389;-79
2021/04/28 03:56:32;;;;;;;3.10;1.73;;;10.10;45.80;;;;;;4974254;28;20530;-78
2021/04/28 03:58:58;;;;;;;4.53;1.98;;;10.10;45.80;;;;;;4974799;28;20034;-79
2021/04/28 04:01:23;;;;;;;4.72;1.98;;;10.10;45.90;;;;;;4975004;28;20030;-78
2021/04/28 04:03:49;;;;;;;3.03;1.77;;;10.00;45.90;;;;;;4975080;28;20518;-78
2021/04/28 04:06:14;;;;;;;5.72;1.75;;;10.00;46.00;;;;;;4974872;28;20468;-78
2021/04/28 04:08:40;;;;;;;5.30;1.65;;;10.00;46.00;;;;;;4974215;28;20070;-76
2021/04/28 04:11:06;;;;;;;3.17;1.92;;;10.00;46.10;;;;;;4973504;28;20051;-77
2021/04/28 04:13:32;;;;;;;5.32;2.10;;;10.00;46.10;;;;;;4974783;28;20030;-76
2021/04/28 04:15:58;;;;;;;3.38;1.60;;;10.00;46.30;;;;;;4974765;28;20027;-77
2021/04/28 04:18:23;;;;;;;3.15;1.50;;;9.90;46.30;;;;;;4974486;28;20022;-79
2021/04/28 04:20:49;;;;;;;3.78;1.70;;;9.90;46.40;;;;;;4972625;28;20097;-78
2021/04/28 04:23:15;;;;;;;10.65;3.55;;;9.90;46.50;;;;;;4972928;28;20033;-78
2021/04/28 04:25:40;;;;;;;5.68;2.45;;;9.80;46.50;;;;;;4973713;28;20030;-78
2021/04/28 04:28:06;;;;;;;3.75;1.90;;;9.80;46.60;;;;;;4974157;28;20375;-78
2021/04/28 04:30:31;;;;;;;4.60;1.80;;;9.80;46.60;;;;;;4974363;28;20023;-79
2021/04/28 04:32:57;;;;;;;3.10;1.90;;;9.80;46.70;;;;;;4973300;28;20031;-78
2021/04/28 04:35:24;;;;;;;6.63;2.20;;;9.80;46.70;;;;;;4973724;28;20031;-79
2021/04/28 04:37:50;;;;;;;4.82;2.00;;;9.80;46.70;;;;;;4973329;28;20026;-78
2021/04/28 04:40:16;;;;;;;3.30;1.70;;;9.70;46.60;;;;;;4973813;28;20026;-78
2021/04/28 04:42:42;;;;;;;4.40;1.60;;;9.70;46.70;;;;;;4971843;28;20037;-78
2021/04/28 04:45:09;;;;;;;3.75;1.90;;;9.70;46.70;;;;;;4972441;28;20027;-79
2021/04/28 04:47:35;;;;;;;4.38;2.22;;;9.80;46.80;;;;;;4972065;28;20027;-77
2021/04/28 04:50:00;;;;;;;3.85;1.92;;;9.70;46.80;;;;;;4974007;28;20033;-78
2021/04/28 04:52:26;;;;;;;5.13;1.90;;;9.70;46.80;;;;;;4973546;28;20043;-79
2021/04/28 04:54:52;;;;;;;4.05;1.40;;;9.70;46.90;;;;;;4973119;28;20031;-78
2021/04/28 04:57:17;;;;;;;3.22;1.88;;;9.70;46.80;;;;;;4972512;28;20081;-79
2021/04/28 04:59:43;;;;;;;3.13;2.33;;;9.70;46.80;;;;;;4972617;28;20019;-78
2021/04/28 05:02:09;;;;;;;5.18;1.73;;;9.70;46.80;;;;;;4973781;28;20014;-78
2021/04/28 05:04:35;;;;;;;4.40;1.70;;;9.80;46.80;;;;;;4973578;28;20050;-79
2021/04/28 05:07:00;;;;;;;3.70;1.90;;;9.80;46.90;;;;;;4971511;28;20058;-79
2021/04/28 05:09:26;;;;;;;4.70;2.00;;;9.80;46.90;;;;;;4973232;28;20109;-78
2021/04/28 05:11:52;;;;;;;3.08;1.73;;;9.80;47.00;;;;;;4972920;28;20030;-78
2021/04/28 05:14:18;;;;;;;4.43;2.30;;;9.80;47.00;;;;;;4973614;28;20063;-79
2021/04/28 05:16:43;;;;;;;4.00;1.70;;;9.80;47.00;;;;;;4972590;28;20412;-78
2021/04/28 05:19:09;;;;;;;5.20;2.30;;;9.90;47.10;;;;;;4973465;28;20078;-78
2021/04/28 05:21:35;;;;;;;5.60;2.05;;;9.90;47.00;;;;;;4972781;28;20101;-80
2021/04/28 05:24:01;;;;;;;3.90;1.77;;;9.90;47.00;;;;;;4972494;28;20026;-78
2021/04/28 05:26:28;;;;;;;2.75;1.40;;;9.90;47.00;;;;;;4971723;28;20034;-79
2021/04/28 05:28:53;;;;;;;3.10;1.63;;;10.00;47.00;;;;;;4971489;28;20038;-75
2021/04/28 05:31:19;;;;;;;4.57;2.08;;;10.00;46.90;;;;;;4960610;28;20147;-72
2021/04/28 05:33:45;;;;;;;3.88;2.00;;;10.00;46.70;;;;;;4949816;28;20483;-73
2021/04/28 05:36:10;;;;;;;4.00;1.70;;;10.10;46.70;;;;;;4951578;28;20039;-72
2021/04/28 05:38:36;;;;;;;5.63;1.92;;;10.10;46.70;;;;;;4951101;28;20027;-73
2021/04/28 05:41:03;;;;;;;3.22;2.28;;;10.20;46.70;;;;;;4949363;29;20028;-73
2021/04/28 05:43:29;;;;;;;5.25;2.28;;;10.20;46.70;;;;;;4950858;28;20037;-74
2021/04/28 05:45:55;;;;;;;3.78;1.92;;;10.30;46.80;;;;;;4950920;28;20165;-72
2021/04/28 05:48:21;;;;;;;3.30;2.08;;;10.30;46.70;;;;;;4953496;29;20114;-77
2021/04/28 05:50:47;;;;;;;4.75;1.92;;;10.40;46.80;;;;;;4951712;29;20092;-76
2021/04/28 05:53:13;;;;;;;5.60;1.80;;;10.40;46.70;;;;;;4953743;28;20078;-77
2021/04/28 05:55:39;;;;;;;3.72;2.00;;;10.50;46.80;;;;;;4952209;28;20392;-77
2021/04/28 05:58:06;;;;;;;4.00;2.17;;;10.40;46.60;;;;;;4952805;28;20475;-77
2021/04/28 06:00:32;;;;;;;3.55;1.95;;;10.50;46.60;;;;;;4953790;29;20023;-77
2021/04/28 06:02:58;;;;;;;3.58;2.10;;;10.50;46.50;;;;;;4952610;28;20031;-77
2021/04/28 06:05:24;;;;;;;3.83;1.85;;;10.60;46.60;;;;;;4953671;29;20420;-77
2021/04/28 06:07:49;;;;;;;3.05;1.30;;;10.60;46.50;;;;;;4951566;29;20027;-77
2021/04/28 06:10:15;;;;;;;5.18;1.98;;;10.70;46.50;;;;;;4953124;29;20034;-76
2021/04/28 06:12:42;;;;;;;4.07;1.83;;;10.70;46.40;;;;;;4953052;28;20102;-75
2021/04/28 06:15:09;;;;;;;3.75;2.40;;;10.80;46.20;;;;;;4952019;28;20043;-77
2021/04/28 06:17:35;;;;;;;3.60;1.75;;;10.90;46.20;;;;;;4952169;28;20027;-78
2021/04/28 06:20:01;;;;;;;3.25;1.60;;;10.90;46.10;;;;;;4952599;29;20023;-76
2021/04/28 06:22:27;;;;;;;3.90;1.77;;;11.00;46.10;;;;;;4953256;29;20432;-77
2021/04/28 06:24:52;;;;;;;4.53;1.73;;;11.00;45.90;;;;;;4952890;29;20039;-76
2021/04/28 06:27:18;;;;;;;3.10;1.73;;;11.10;45.90;;;;;;4953197;29;20027;-77
2021/04/28 06:29:44;;;;;;;4.88;1.95;;;11.20;45.90;;;;;;4952557;28;20444;-75
2021/04/28 06:32:10;;;;;;;5.40;1.77;;;11.30;46.00;;;;;;4953079;28;20046;-78
2021/04/28 06:34:35;;;;;;;4.65;2.08;;;11.30;45.80;;;;;;4951775;29;20142;-77
2021/04/28 06:37:01;;;;;;;5.55;2.40;;;11.40;45.80;;;;;;4952521;28;20066;-76
2021/04/28 06:39:27;;;;;;;6.47;2.22;;;11.40;45.70;;;;;;4951488;28;20023;-76
2021/04/28 06:41:52;;;;;;;2.55;1.50;;;11.50;45.80;;;;;;4952541;29;20032;-75
2021/04/28 06:44:18;;;;;;;2.47;1.65;;;11.50;45.80;;;;;;4955061;28;20035;-76
2021/04/28 06:46:44;;;;;;;4.45;2.13;;;11.50;45.70;;;;;;4956007;29;20023;-75
2021/04/28 06:49:09;;;;;;;5.03;2.22;;;11.50;45.80;;;;;;4956081;29;20118;-77
2021/04/28 06:51:35;;;;;;;4.53;1.70;;;11.50;45.80;;;;;;4956352;29;20027;-77
2021/04/28 06:54:01;;;;;;;4.35;1.92;;;11.50;45.90;;;;;;4955330;29;20034;-77
2021/04/28 06:56:30;;;;;;;5.28;1.90;;;11.50;46.00;;;;;;4956290;29;20034;-77
2021/04/28 06:58:56;;;;;;;5.15;1.73;;;11.60;46.10;;;;;;4955928;28;20078;-79
2021/04/28 07:01:21;;;;;;;6.57;2.38;;;11.60;46.10;;;;;;4955026;28;20027;-77
2021/04/28 07:03:47;;;;;;;3.65;1.80;;;11.60;46.10;;;;;;4955297;28;20130;-77
2021/04/28 07:06:13;;;;;;;2.22;1.40;;;11.60;45.80;;;;;;4971050;28;20032;-77
2021/04/28 07:08:40;;;;;;;5.00;1.85;;;11.60;45.70;;;;;;4956332;28;20023;-77
2021/04/28 07:11:07;;;;;;;5.40;1.45;;;11.60;45.80;;;;;;4955526;28;20039;-76
2021/04/28 07:13:33;;;;;;;3.47;2.05;;;11.70;45.80;;;;;;4954492;29;20127;-77
2021/04/28 07:15:59;;;;;;;2.72;1.77;;;11.80;45.90;;;;;;4955448;28;20028;-77
2021/04/28 07:18:24;;;;;;;4.38;2.58;;;11.80;45.60;;;;;;4956110;28;20035;-76
2021/04/28 07:20:51;;;;;;;4.25;1.73;;;11.90;45.50;;;;;;4955423;28;20062;-76
2021/04/28 07:23:17;;;;;;;5.55;2.35;;;11.90;45.50;;;;;;4955834;29;20126;-77
2021/04/28 07:25:43;;;;;;;3.83;2.45;;;11.90;45.40;;;;;;4956007;29;20027;-77
2021/04/28 07:28:08;;;;;;;3.65;1.80;;;12.00;45.50;;;;;;4953951;29;20046;-77
2021/04/28 07:30:36;;;;;;;3.75;1.65;;;12.10;45.60;;;;;;4954613;29;20031;-78
2021/04/28 07:33:02;;;;;;;4.05;2.10;;;12.10;45.50;;;;;;4953761;28;20468;-78
2021/04/28 07:35:28;;;;;;;3.30;1.65;;;12.20;45.50;;;;;;4955761;28;20027;-77
2021/04/28 07:37:54;;;;;;;4.85;2.20;;;12.30;45.60;;;;;;4955081;28;20046;-77
2021/04/28 07:40:23;;;;;;;3.65;2.10;;;12.30;45.50;;;;;;4956354;29;20027;-77
2021/04/28 07:42:50;;;;;;;5.22;2.00;;;12.40;45.20;;;;;;4955509;28;20027;-76
2021/04/28 07:45:17;;;;;;;5.90;2.65;;;12.40;45.20;;;;;;4955325;28;20059;-77
2021/04/28 07:47:43;;;;;;;7.70;2.42;;;12.50;45.40;;;;;;4955754;28;20031;-77
2021/04/28 07:50:10;;;;;;;2.70;1.88;;;12.50;45.50;;;;;;4955371;28;20062;-77
2021/04/28 07:52:36;;;;;;;5.45;1.98;;;12.50;45.60;;;;;;4955434;28;20529;-77
2021/04/28 07:55:02;;;;;;;8.43;2.35;;;12.50;45.70;;;;;;4953695;28;20031;-77
2021/04/28 07:57:28;;;;;;;4.28;2.13;;;12.60;45.80;;;;;;4955264;28;20527;-76
2021/04/28 07:59:54;;;;;;;6.07;2.03;;;12.60;45.90;;;;;;4954937;28;20043;-78
2021/04/28 08:02:20;;;;;;;4.88;2.30;;;12.60;46.00;;;;;;4953781;29;20027;-77
2021/04/28 08:04:46;;;;;;;4.22;2.00;;;12.60;46.10;;;;;;4954773;28;20155;-77
2021/04/28 08:07:12;;;;;;;3.10;1.92;;;12.60;46.00;;;;;;4953075;28;20031;-77
2021/04/28 08:09:38;;;;;;;6.53;2.50;;;12.70;46.10;;;;;;4969836;28;20440;-77
2021/04/28 08:12:05;;;;;;;5.78;2.38;;;12.70;46.10;;;;;;4954499;28;20027;-77
2021/04/28 08:14:30;;;;;;;5.28;2.30;;;12.80;46.10;;;;;;4955389;28;20039;-77
2021/04/28 08:16:56;;;;;;;5.60;2.58;;;12.80;46.10;;;;;;4954699;29;20353;-76
2021/04/28 08:19:22;;;;;;;4.47;2.10;;;12.90;46.00;;;;;;4955537;28;20027;-76
2021/04/28 08:21:48;;;;;;;2.88;1.35;;;12.90;46.00;;;;;;4954777;29;20102;-77
2021/04/28 08:24:13;;;;;;;5.15;2.50;;;13.00;45.90;;;;;;4954280;28;20038;-77
2021/04/28 08:26:39;;;;;;;3.13;1.70;;;13.00;46.00;;;;;;4954391;29;20090;-77
2021/04/28 08:29:05;;;;;;;3.75;1.83;;;13.10;45.80;;;;;;4954332;28;20027;-78
2021/04/28 08:31:31;;;;;;;3.50;1.83;;;13.10;45.70;;;;;;4954814;28;20028;-76
2021/04/28 08:33:56;;;;;;;5.30;2.10;;;13.20;45.80;;;;;;4954178;28;20070;-76
2021/04/28 08:36:22;;;;;;;8.57;2.10;;;13.20;45.60;;;;;;4956036;29;20034;-77
2021/04/28 08:38:48;;;;;;;6.90;2.63;;;13.20;45.50;;;;;;4969403;28;20019;-78
2021/04/28 08:41:13;;;;;;;6.30;2.45;;;13.30;45.60;;;;;;4954172;28;20539;-78
2021/04/28 08:43:40;;;;;;;4.80;2.55;;;13.40;45.50;;;;;;4954695;28;20027;-76
2021/04/28 08:46:07;;;;;;;5.45;2.33;;;13.40;45.50;;;;;;4954371;28;20051;-76
2021/04/28 08:48:34;;;;;;;4.65;1.83;;;13.50;45.40;;;;;;4954263;29;20034;-78
2021/04/28 08:51:00;;;;;;;4.68;2.00;;;13.50;45.30;;;;;;4953861;28;20472;-76
2021/04/28 08:53:31;;;;;;;8.35;3.03;;;13.50;45.40;;;;;;4954385;28;20039;-77
2021/04/28 08:55:57;;;;;;;13.32;2.85;;;13.60;45.60;;;;;;4953667;28;20023;-77
2021/04/28 08:58:23;;;;;;;5.22;1.85;;;13.50;45.60;;;;;;4955221;29;20023;-78
2021/04/28 09:00:50;;;;;;;5.88;2.85;;;13.60;45.70;;;;;;4954297;28;20023;-77
2021/04/28 09:03:18;;;;;;;4.68;2.15;;;13.60;45.70;;;;;;4952162;28;20422;-77
2021/04/28 09:05:46;;;;;;;5.18;2.20;;;13.70;45.70;;;;;;4954118;28;20035;-76
2021/04/28 09:08:13;;;;;;;5.63;2.40;;;13.60;45.70;;;;;;4953212;28;20436;-76
2021/04/28 09:10:40;;;;;;;5.13;2.50;;;13.70;45.80;;;;;;4955993;28;20467;-77
2021/04/28 09:13:22;;;;;;;5.35;2.13;;;13.70;45.70;;;;;;4953407;28;20193;-77
2021/04/28 09:15:49;;;;;;;4.28;1.92;;;13.70;45.70;;;;;;4954079;29;20023;-77
2021/04/28 09:18:33;;;;;;;6.00;2.17;;;13.80;45.50;;;;;;4953487;29;20330;-77
2021/04/28 09:21:00;;;;;;;4.35;1.95;;;13.80;45.50;;;;;;4953640;28;20486;-76
2021/04/28 09:23:34;;;;;;;7.53;3.08;;;13.90;45.50;;;;;;4953917;28;20093;-76
2021/04/28 09:26:00;;;;;;;4.95;2.22;;;13.90;45.30;;;;;;4953497;28;20019;-78
2021/04/28 09:28:31;;;;;;;5.18;2.65;;;14.00;45.30;;;;;;4952628;28;20074;-77
2021/04/28 09:31:06;;;;;;;6.03;2.35;;;14.00;45.30;;;;;;4953201;28;20388;-76
2021/04/28 09:33:41;;;;;;;7.82;3.25;;;14.10;45.30;;;;;;4953705;28;20031;-78
2021/04/28 09:36:08;;;;;;;6.18;2.70;;;14.20;45.20;;;;;;4953105;29;20113;-77
2021/04/28 09:39:02;;;;;;;10.95;3.10;;;14.30;45.10;;;;;;4953963;28;20027;-77
2021/04/28 09:41:47;;;;;;;4.57;2.78;;;14.40;44.90;;;;;;4953859;28;20106;-77
2021/04/28 09:44:18;;;;;;;7.22;2.42;;;14.60;44.70;;;;;;4953162;28;20027;-77
2021/04/28 09:47:02;;;;;;;6.05;2.63;;;14.70;44.50;;;;;;4952332;28;20468;-77
2021/04/28 09:49:51;;;;;;;7.95;2.53;;;15.00;44.20;;;;;;4953737;29;20016;-77
2021/04/28 09:52:28;;;;;;;7.25;2.75;;;15.20;43.90;;;;;;4953207;28;20066;-77
2021/04/28 09:54:55;;;;;;;4.90;2.80;;;15.30;43.70;;;;;;4952457;29;20062;-76
2021/04/28 09:57:34;;;;;;;6.63;2.78;;;15.40;43.60;;;;;;4953175;28;20054;-77
2021/04/28 10:00:00;;;;;;;5.78;2.40;;;15.60;43.60;;;;;;4952945;28;20488;-76
2021/04/28 10:02:28;;;;;;;6.22;2.85;;;15.60;43.40;;;;;;4953858;28;20082;-78
2021/04/28 10:05:14;;;;;;;7.53;3.22;;;15.60;43.30;;;;;;4953753;28;20048;-76
2021/04/28 10:07:39;;;;;;;4.57;2.60;;;15.70;43.30;;;;;;4953647;29;20034;-77
2021/04/28 10:10:05;;;;;;;5.90;2.35;;;15.70;43.20;;;;;;4951627;29;20023;-78
2021/04/28 10:12:31;;;;;;;3.40;1.85;;;15.80;43.20;;;;;;4953139;29;20034;-77
2021/04/28 10:14:57;;;;;;;6.18;2.53;;;15.90;42.70;;;;;;4953700;29;20035;-76
2021/04/28 10:17:23;;;;;;;5.43;2.10;;;16.00;43.20;;;;;;4952809;28;20023;-76
2021/04/28 10:19:52;;;;;;;4.85;2.75;;;16.10;42.50;;;;;;4956263;29;20026;-77
2021/04/28 10:22:19;;;;;;;6.72;2.50;;;16.20;42.50;;;;;;4954994;28;20404;-77
2021/04/28 10:24:50;;;;;;;4.45;1.83;;;16.30;42.50;;;;;;4956910;28;20074;-78
2021/04/28 10:27:18;;;;;;;7.75;2.47;;;16.40;42.40;;;;;;4956538;29;20027;-77
2021/04/28 10:29:48;;;;;;;6.85;2.75;;;16.50;42.20;;;;;;4956742;28;20019;-77
2021/04/28 10:32:16;;;;;;;5.35;2.50;;;16.60;41.90;;;;;;4956025;29;20019;-77
2021/04/28 10:34:58;;;;;;;6.15;2.45;;;16.60;41.90;;;;;;4956818;29;20031;-77
2021/04/28 10:37:30;;;;;;;7.40;2.58;;;16.60;41.90;;;;;;4955060;29;20547;-78
2021/04/28 10:39:56;;;;;;;7.57;2.30;;;16.60;42.00;;;;;;4955427;29;20542;-77
2021/04/28 10:42:33;;;;;;;9.00;3.05;;;16.70;42.10;;;;;;4956017;28;20038;-77
2021/04/28 10:45:00;;;;;;;4.72;2.22;;;16.80;42.00;;;;;;4955406;29;20051;-77
2021/04/28 10:47:29;;;;;;;6.80;2.55;;;16.80;42.00;;;;;;4955847;28;20034;-76
2021/04/28 10:50:04;;;;;;;4.03;2.05;;;16.80;41.90;;;;;;4955673;29;20433;-76
2021/04/28 10:52:32;;;;;;;4.65;2.35;;;16.80;41.60;;;;;;4956409;28;20028;-77
2021/04/28 10:54:57;;;;;;;8.18;3.35;;;16.70;41.60;;;;;;4955988;28;20380;-78
2021/04/28 10:57:38;;;;;;;6.13;2.67;;;16.80;41.60;;;;;;4956212;29;20109;-77
2021/04/28 11:00:18;;;;;;;6.72;2.45;;;16.80;41.50;;;;;;4955664;28;20062;-77
2021/04/28 11:02:44;;;;;;;4.38;2.17;;;16.80;41.50;;;;;;4956077;29;20059;-77
2021/04/28 11:05:20;;;;;;;4.75;2.83;;;16.90;41.50;;;;;;4955060;28;20385;-77
2021/04/28 11:07:55;;;;;;;5.00;2.95;;;16.90;41.50;;;;;;4954968;29;20373;-77
2021/04/28 11:10:35;;;;;;;7.85;2.88;;;17.10;41.30;;;;;;4955747;29;20486;-76
2021/04/28 11:13:16;;;;;;;5.23;2.03;;;17.20;41.10;;;;;;4956202;29;20075;-77
2021/04/28 11:15:51;;;;;;;6.10;2.83;;;17.30;40.80;;;;;;4956439;28;20054;-77
2021/04/28 11:18:36;;;;;;;5.50;2.80;;;17.30;40.90;;;;;;4955723;28;20075;-77
2021/04/28 11:21:17;;;;;;;7.78;3.58;;;17.50;41.00;;;;;;4954795;28;20345;-76
2021/04/28 11:24:05;;;;;;;7.10;2.95;;;17.60;40.90;;;;;;4956014;28;20102;-77
2021/04/28 11:26:34;;;;;;;7.10;2.83;;;17.70;40.90;;;;;;4955873;28;20019;-77
2021/04/28 11:29:01;;;;;;;8.15;2.42;;;17.80;40.90;;;;;;4955724;28;20024;-77
2021/04/28 11:31:58;;;;;;;6.38;2.55;;;17.80;40.60;;;;;;4955218;28;20498;-77
2021/04/28 11:34:23;;;;;;;6.10;2.60;;;17.80;40.60;;;;;;4955053;28;20065;-76
2021/04/28 11:36:57;;;;;;;4.70;2.33;;;17.90;40.70;;;;;;4954163;28;20384;-77
2021/04/28 11:39:38;;;;;;;7.55;2.72;;;17.90;40.60;;;;;;4954829;29;20083;-77
2021/04/28 11:42:06;;;;;;;6.50;2.47;;;18.10;40.70;;;;;;4955618;28;20031;-78
2021/04/28 11:44:31;;;;;;;5.38;2.72;;;18.20;40.40;;;;;;4955462;29;20263;-76
2021/04/28 11:47:06;;;;;;;7.68;3.00;;;18.40;40.10;;;;;;4955426;28;20023;-77
2021/04/28 11:49:32;;;;;;;6.20;2.78;;;18.50;39.50;;;;;;4955179;29;20436;-78
2021/04/28 11:51:58;;;;;;;7.03;3.00;;;18.60;39.30;;;;;;4955032;29;20077;-77
2021/04/28 11:54:24;;;;;;;7.63;3.15;;;18.70;39.20;;;;;;4954615;28;20045;-76
2021/04/28 11:56:49;;;;;;;5.38;2.50;;;18.90;39.30;;;;;;4954009;29;20110;-77
2021/04/28 11:59:19;;;;;;;8.77;3.20;;;19.10;39.20;;;;;;4954650;28;20464;-77
2021/04/28 12:01:45;;;;;;;6.13;2.50;;;19.30;39.10;;;;;;4955209;28;20030;-77
2021/04/28 12:04:11;;;;;;;3.95;2.28;;;19.40;38.60;;;;;;4952626;29;20051;-78
2021/04/28 12:06:37;;;;;;;5.45;2.40;;;19.40;38.80;;;;;;4955088;29;20038;-77
2021/04/28 12:09:16;;;;;;;7.88;3.38;;;19.50;38.70;;;;;;4953675;29;20023;-77
2021/04/28 12:11:45;;;;;;;5.95;1.90;;;19.60;38.50;;;;;;4955129;28;20106;-77
2021/04/28 12:14:10;;;;;;;8.07;2.67;;;19.70;38.50;;;;;;4953074;28;20114;-77
2021/04/28 12:17:00;;;;;;;5.32;2.30;;;19.70;38.10;;;;;;4954982;29;20114;-78
2021/04/28 12:19:27;;;;;;;4.93;2.80;;;19.70;37.90;;;;;;4952387;29;20051;-78
2021/04/28 12:22:19;;;;;;;4.50;2.20;;;19.70;37.70;;;;;;4953692;28;20440;-79
2021/04/28 12:24:49;;;;;;;10.98;3.30;;;19.90;37.90;;;;;;4951765;29;20043;-77
2021/04/28 12:27:20;;;;;;;5.57;2.33;;;19.90;38.00;;;;;;4953944;29;20574;-77
2021/04/28 12:30:09;;;;;;;8.07;2.78;;;20.10;38.00;;;;;;4953134;28;20022;-77
2021/04/28 12:32:45;;;;;;;7.10;3.25;;;20.20;37.90;;;;;;4954776;28;20082;-76
2021/04/28 12:35:16;;;;;;;4.32;2.40;;;20.20;37.70;;;;;;4954085;28;20113;-77
2021/04/28 12:38:04;;;;;;;5.40;2.88;;;20.20;37.60;;;;;;4954714;28;20015;-78
2021/04/28 12:40:44;;;;;;;10.13;2.70;;;20.10;37.20;;;;;;4952182;28;20706;-77
2021/04/28 12:43:13;;;;;;;8.80;3.40;;;20.00;37.40;;;;;;4954187;29;20373;-77
2021/04/28 12:45:39;;;;;;;5.05;2.45;;;20.00;37.20;;;;;;4954254;28;20114;-77
2021/04/28 12:48:13;;;;;;;5.57;2.08;;;20.00;36.90;;;;;;4969269;28;20059;-77
2021/04/28 12:50:41;;;;;;;7.07;2.95;;;20.00;37.00;;;;;;4953955;28;20380;-76
2021/04/28 12:53:18;;;;;;;6.55;2.30;;;20.00;37.00;;;;;;4952761;28;20035;-77